createdAt,value
2023-05-20T00:00:19.101Z,100265.22
2023-05-20T00:02:47.157Z,100267.78
2023-05-20T00:05:14.602Z,100267.16
2023-05-20T00:07:42.066Z,100266.16
2023-05-20T00:10:10.406Z,100273.44
2023-05-20T00:12:41.239Z,100271.97
2023-05-20T00:15:08.974Z,100276.59
2023-05-20T00:17:36.671Z,100284.97
2023-05-20T00:20:05.574Z,100283.22
2023-05-20T00:22:32.918Z,100283.69
2023-05-20T00:25:02.396Z,100274.72
2023-05-20T00:27:29.724Z,100273.34
2023-05-20T00:30:03.372Z,100268.72
2023-05-20T00:32:31.140Z,100272.72
2023-05-20T00:34:59.429Z,100265.00
2023-05-20T00:37:27.454Z,100272.91
2023-05-20T00:39:55.283Z,100273.56
2023-05-20T00:42:26.951Z,100276.12
2023-05-20T00:44:55.340Z,100273.16
2023-05-20T00:47:24.365Z,100266.72
2023-05-20T00:49:52.045Z,100272.16
2023-05-20T00:52:19.851Z,100277.41
2023-05-20T00:54:47.223Z,100269.03
2023-05-20T00:57:14.841Z,100275.13
2023-05-20T00:59:44.755Z,100275.22
2023-05-20T01:02:14.467Z,100277.13
2023-05-20T01:04:46.716Z,100273.78
2023-05-20T01:07:15.535Z,100274.56
2023-05-20T01:09:43.136Z,100280.50
2023-05-20T01:12:29.996Z,100277.34
2023-05-20T01:15:00.685Z,100285.91
2023-05-20T01:17:33.211Z,100286.03
2023-05-20T01:20:02.697Z,100294.66
2023-05-20T01:22:31.636Z,100297.69
2023-05-20T01:24:59.010Z,100289.84
2023-05-20T01:27:27.007Z,100296.16
2023-05-20T01:29:54.571Z,100293.66
2023-05-20T01:32:27.154Z,100296.59
2023-05-20T01:34:55.286Z,100293.53
2023-05-20T01:37:22.552Z,100291.16
2023-05-20T01:39:50.170Z,100297.06
2023-05-20T01:42:18.905Z,100298.66
2023-05-20T01:44:46.473Z,100298.03
2023-05-20T01:47:14.290Z,100296.62
2023-05-20T01:49:42.454Z,100301.16
2023-05-20T01:52:12.304Z,100304.91
2023-05-20T01:54:40.546Z,100298.78
2023-05-20T01:57:08.975Z,100294.69
2023-05-20T01:59:36.374Z,100293.91
2023-05-20T02:02:04.626Z,100294.09
2023-05-20T02:04:32.303Z,100286.88
2023-05-20T02:07:00.771Z,100291.47
2023-05-20T02:09:28.891Z,100287.94
2023-05-20T02:11:57.158Z,100298.97
2023-05-20T02:14:24.900Z,100296.62
2023-05-20T02:16:52.529Z,100293.63
2023-05-20T02:19:24.016Z,100292.47
2023-05-20T02:21:52.210Z,100291.63
2023-05-20T02:24:21.301Z,100288.66
2023-05-20T02:26:51.288Z,100290.09
2023-05-20T02:29:22.130Z,100286.69
2023-05-20T02:31:50.317Z,100283.34
2023-05-20T02:34:18.110Z,100295.25
2023-05-20T02:36:46.107Z,100285.16
2023-05-20T02:39:13.492Z,100289.62
2023-05-20T02:41:40.966Z,100286.09
2023-05-20T02:44:09.988Z,100285.22
2023-05-20T02:46:37.399Z,100286.62
2023-05-20T02:49:05.661Z,100286.62
2023-05-20T02:51:34.044Z,100291.97
2023-05-20T02:54:01.541Z,100278.28
2023-05-20T02:56:30.359Z,100277.41
2023-05-20T02:58:57.996Z,100275.94
2023-05-20T03:01:25.969Z,100276.38
2023-05-20T03:03:53.666Z,100283.22
2023-05-20T03:06:22.639Z,100277.03
2023-05-20T03:08:51.735Z,100288.84
2023-05-20T03:11:20.161Z,100289.78
2023-05-20T03:13:48.995Z,100280.31
2023-05-20T03:16:16.966Z,100272.19
2023-05-20T03:18:46.445Z,100289.50
2023-05-20T03:21:14.476Z,100284.81
2023-05-20T03:23:42.198Z,100294.44
2023-05-20T03:26:09.635Z,100291.37
2023-05-20T03:28:37.612Z,100291.84
2023-05-20T03:31:06.849Z,100300.81
2023-05-20T03:33:35.104Z,100301.22
2023-05-20T03:36:04.202Z,100306.94
2023-05-20T03:38:35.279Z,100306.41
2023-05-20T03:41:05.472Z,100302.88
2023-05-20T03:43:45.123Z,100302.28
2023-05-20T03:46:13.414Z,100303.38
2023-05-20T03:48:41.300Z,100307.69
2023-05-20T03:51:08.750Z,100298.59
2023-05-20T03:53:40.442Z,100306.25
2023-05-20T03:56:08.317Z,100304.13
2023-05-20T03:58:38.809Z,100300.88
2023-05-20T04:01:07.413Z,100307.50
2023-05-20T04:03:35.447Z,100313.31
2023-05-20T04:06:04.412Z,100312.88
2023-05-20T04:08:32.239Z,100307.97
2023-05-20T04:11:00.231Z,100315.97
2023-05-20T04:13:29.025Z,100315.19
2023-05-20T04:15:58.717Z,100317.81
2023-05-20T04:18:29.936Z,100327.12
2023-05-20T04:20:57.393Z,100322.09
2023-05-20T04:23:24.827Z,100316.59
2023-05-20T04:25:52.908Z,100322.81
2023-05-20T04:31:00.322Z,100333.34
2023-05-20T04:33:28.113Z,100327.38
2023-05-20T04:36:01.154Z,100339.78
2023-05-20T04:38:30.681Z,100325.66
2023-05-20T04:41:00.366Z,100337.44
2023-05-20T04:43:31.369Z,100337.84
2023-05-20T04:46:01.491Z,100337.31
2023-05-20T04:48:49.878Z,100342.78
2023-05-20T04:51:18.066Z,100338.94
2023-05-20T04:53:47.147Z,100337.62
2023-05-20T04:56:17.176Z,100340.62
2023-05-20T04:58:53.071Z,100346.59
2023-05-20T05:01:21.551Z,100341.66
2023-05-20T05:03:51.092Z,100333.78
2023-05-20T05:06:19.212Z,100328.41
2023-05-20T05:08:47.385Z,100325.22
2023-05-20T05:11:21.750Z,100322.03
2023-05-20T05:13:49.617Z,100323.09
2023-05-20T05:16:19.102Z,100324.97
2023-05-20T05:18:47.471Z,100331.97
2023-05-20T05:23:53.089Z,100332.00
2023-05-20T05:26:21.168Z,100332.84
2023-05-20T05:32:40.607Z,100343.19
2023-05-20T05:35:09.105Z,100338.25
2023-05-20T05:37:42.156Z,100351.03
2023-05-20T05:40:13.332Z,100339.34
2023-05-20T05:42:42.232Z,100329.44
2023-05-20T05:45:12.261Z,100338.00
2023-05-20T05:47:46.388Z,100345.75
2023-05-20T05:50:14.908Z,100336.72
2023-05-20T05:52:44.416Z,100351.84
2023-05-20T05:55:13.252Z,100353.78
2023-05-20T05:57:45.499Z,100358.41
2023-05-20T06:00:26.181Z,100353.31
2023-05-20T06:02:56.505Z,100351.22
2023-05-20T06:05:26.918Z,100346.72
2023-05-20T06:07:56.907Z,100342.34
2023-05-20T06:10:26.153Z,100331.59
2023-05-20T06:16:10.914Z,100343.78
2023-05-20T06:18:38.557Z,100332.56
2023-05-20T06:21:07.377Z,100338.09
2023-05-20T06:23:45.322Z,100337.06
2023-05-20T06:26:15.019Z,100331.28
2023-05-20T06:29:07.220Z,100333.00
2023-05-20T06:31:37.244Z,100330.50
2023-05-20T06:34:13.254Z,100328.75
2023-05-20T06:36:44.481Z,100336.16
2023-05-20T06:39:17.082Z,100342.63
2023-05-20T06:42:06.116Z,100345.53
2023-05-20T06:45:13.144Z,100330.50
2023-05-20T06:48:17.099Z,100330.09
2023-05-20T06:50:52.264Z,100329.69
2023-05-20T06:53:35.580Z,100329.44
2023-05-20T06:56:33.593Z,100318.22
2023-05-20T06:59:14.215Z,100313.03
2023-05-20T07:02:24.378Z,100322.41
2023-05-20T07:05:04.636Z,100314.97
2023-05-20T07:07:45.178Z,100307.31
2023-05-20T07:10:38.364Z,100307.06
2023-05-20T07:13:44.542Z,100324.72
2023-05-20T07:16:42.072Z,100308.88
2023-05-20T07:19:36.957Z,100301.94
2023-05-20T07:22:16.816Z,100301.69
2023-05-20T07:25:08.386Z,100300.44
2023-05-20T07:27:46.374Z,100298.97
2023-05-20T07:30:18.372Z,100292.03
2023-05-20T07:32:48.053Z,100286.25
2023-05-20T07:35:39.185Z,100292.16
2023-05-20T07:39:01.001Z,100296.53
2023-05-20T07:41:33.073Z,100293.25
2023-05-20T07:44:26.850Z,100286.25
2023-05-20T07:47:42.361Z,100294.75
2023-05-20T07:50:14.391Z,100295.50
2023-05-20T07:52:56.080Z,100283.12
2023-05-20T07:55:27.250Z,100285.97
2023-05-20T07:57:58.294Z,100278.91
2023-05-20T08:00:30.194Z,100288.25
2023-05-20T08:03:08.613Z,100291.06
2023-05-20T08:06:04.542Z,100285.13
2023-05-20T08:08:58.203Z,100279.31
2023-05-20T08:11:28.067Z,100270.91
2023-05-20T08:14:32.354Z,100288.84
2023-05-20T08:17:17.270Z,100273.91
2023-05-20T08:20:09.131Z,100274.63
2023-05-20T08:23:01.114Z,100271.78
2023-05-20T08:25:53.100Z,100264.53
2023-05-20T08:28:33.561Z,100267.47
2023-05-20T08:31:14.962Z,100263.78
2023-05-20T08:33:58.901Z,100267.06
2023-05-20T08:36:28.155Z,100262.28
2023-05-20T08:39:16.733Z,100271.88
2023-05-20T08:42:26.164Z,100256.66
2023-05-20T08:45:15.280Z,100264.37
2023-05-20T08:48:46.141Z,100273.16
2023-05-20T08:51:15.922Z,100254.31
2023-05-20T08:54:13.315Z,100253.78
2023-05-20T08:57:00.740Z,100257.25
2023-05-20T08:59:33.939Z,100252.91
2023-05-20T09:02:04.504Z,100254.91
2023-05-20T09:04:36.193Z,100251.97
2023-05-20T09:07:19.270Z,100250.44
2023-05-20T09:09:49.159Z,100244.66
2023-05-20T09:12:20.458Z,100245.88
2023-05-20T09:14:48.640Z,100250.16
2023-05-20T09:17:24.276Z,100254.34
2023-05-20T09:19:55.218Z,100246.25
2023-05-20T09:22:28.193Z,100237.66
2023-05-20T09:24:58.964Z,100236.81
2023-05-20T09:27:31.211Z,100242.84
2023-05-20T09:30:00.216Z,100243.94
2023-05-20T09:32:29.864Z,100235.34
2023-05-20T09:35:01.508Z,100237.53
2023-05-20T09:37:31.364Z,100216.91
2023-05-20T09:40:04.107Z,100218.22
2023-05-20T09:43:00.146Z,100211.34
2023-05-20T09:45:55.568Z,100207.38
2023-05-20T09:48:38.280Z,100211.59
2023-05-20T09:51:34.566Z,100191.25
2023-05-20T09:54:20.844Z,100191.31
2023-05-20T09:57:17.970Z,100189.28
2023-05-20T09:59:57.315Z,100187.06
2023-05-20T10:02:27.458Z,100179.09
2023-05-20T10:06:03.149Z,100182.84
2023-05-20T10:12:48.372Z,100186.88
2023-05-20T10:15:28.206Z,100171.94
2023-05-20T10:18:28.321Z,100175.09
2023-05-20T10:21:01.529Z,100171.34
2023-05-20T10:24:06.398Z,100172.22
2023-05-20T10:26:38.483Z,100162.19
2023-05-20T10:29:27.171Z,100159.41
2023-05-20T10:32:31.566Z,100159.88
2023-05-20T10:35:24.294Z,100164.41
2023-05-20T10:38:09.347Z,100154.47
2023-05-20T10:40:47.513Z,100146.34
2023-05-20T10:43:36.487Z,100147.00
2023-05-20T10:46:53.772Z,100143.62
2023-05-20T10:49:27.726Z,100141.78
2023-05-20T10:52:09.266Z,100149.84
2023-05-20T10:54:51.490Z,100141.06
2023-05-20T10:57:44.107Z,100148.00
2023-05-20T11:00:28.401Z,100141.72
2023-05-20T11:04:16.834Z,100134.97
2023-05-20T11:07:01.259Z,100132.91
2023-05-20T11:09:40.623Z,100124.72
2023-05-20T11:12:29.585Z,100130.66
2023-05-20T11:15:00.491Z,100120.91
2023-05-20T11:17:55.291Z,100123.38
2023-05-20T11:20:26.257Z,100124.53
2023-05-20T11:22:59.493Z,100117.91
2023-05-20T11:25:40.676Z,100112.19
2023-05-20T11:32:43.477Z,100118.41
2023-05-20T11:35:37.734Z,100103.50
2023-05-20T11:38:20.070Z,100111.16
2023-05-20T11:40:59.644Z,100102.75
2023-05-20T11:43:35.253Z,100101.75
2023-05-20T11:46:05.590Z,100108.56
2023-05-20T11:48:35.354Z,100106.25
2023-05-20T11:51:06.240Z,100101.78
2023-05-20T11:53:37.282Z,100101.37
2023-05-20T11:56:10.448Z,100104.13
2023-05-20T11:58:46.465Z,100106.66
2023-05-20T12:03:50.392Z,100085.94
2023-05-20T12:06:20.938Z,100098.59
2023-05-20T12:08:51.323Z,100095.91
2023-05-20T12:11:56.037Z,100090.28
2023-05-20T12:14:28.559Z,100098.94
2023-05-20T12:16:57.805Z,100101.09
2023-05-20T12:19:26.989Z,100094.53
2023-05-20T12:21:55.165Z,100099.69
2023-05-20T12:24:22.903Z,100090.34
2023-05-20T12:27:00.386Z,100093.84
2023-05-20T12:29:29.370Z,100087.16
2023-05-20T12:31:57.389Z,100082.78
2023-05-20T12:34:25.870Z,100086.88
2023-05-20T12:36:55.422Z,100079.75
2023-05-20T12:39:26.384Z,100075.50
2023-05-20T12:41:56.737Z,100088.59
2023-05-20T12:44:34.303Z,100080.13
2023-05-20T12:47:03.156Z,100076.09
2023-05-20T12:49:32.412Z,100074.03
2023-05-20T12:52:12.086Z,100069.53
2023-05-20T12:54:48.931Z,100067.22
2023-05-20T12:57:19.134Z,100075.09
2023-05-20T12:59:48.652Z,100074.34
2023-05-20T13:02:16.543Z,100056.81
2023-05-20T13:04:46.252Z,100053.38
2023-05-20T13:07:23.769Z,100055.75
2023-05-20T13:09:51.582Z,100061.25
2023-05-20T13:12:30.609Z,100058.19
2023-05-20T13:15:26.482Z,100050.19
2023-05-20T13:18:23.632Z,100046.56
2023-05-20T13:21:09.472Z,100039.94
2023-05-20T13:24:06.218Z,100048.19
2023-05-20T13:27:02.631Z,100037.97
2023-05-20T13:32:20.638Z,100034.41
2023-05-20T13:35:17.286Z,100028.72
2023-05-20T13:38:02.296Z,100035.91
2023-05-20T13:41:00.330Z,100031.78
2023-05-20T13:43:48.691Z,100039.88
2023-05-20T13:46:42.375Z,100033.81
2023-05-20T13:49:10.265Z,100032.22
2023-05-20T13:52:00.116Z,100022.69
2023-05-20T13:55:16.225Z,100023.00
2023-05-20T13:58:18.503Z,100031.84
2023-05-20T14:01:02.190Z,100023.16
2023-05-20T14:03:44.547Z,100019.53
2023-05-20T14:06:46.949Z,100013.09
2023-05-20T14:09:29.460Z,100012.72
2023-05-20T14:12:12.607Z,100010.78
2023-05-20T14:14:55.111Z,100010.56
2023-05-20T14:17:45.499Z,100018.69
2023-05-20T14:20:27.527Z,100012.00
2023-05-20T14:23:10.745Z,100005.91
2023-05-20T14:26:03.707Z,100009.69
2023-05-20T14:28:46.341Z,100004.31
2023-05-20T14:31:47.270Z,99996.75
2023-05-20T14:34:30.813Z,100004.16
2023-05-20T14:37:19.689Z,100002.03
2023-05-20T14:40:02.356Z,100000.50
2023-05-20T14:42:44.139Z,99989.66
2023-05-20T14:45:40.288Z,99983.94
2023-05-20T14:48:22.122Z,99988.59
2023-05-20T14:51:13.124Z,99984.53
2023-05-20T14:53:53.102Z,99984.16
2023-05-20T14:56:23.278Z,99991.97
2023-05-20T14:58:51.147Z,99984.94
2023-05-20T15:01:19.590Z,99988.72
2023-05-20T15:03:49.444Z,99983.66
2023-05-20T15:06:22.285Z,99990.12
2023-05-20T15:08:50.258Z,99995.59
2023-05-20T15:11:19.095Z,99987.47
2023-05-20T15:13:48.431Z,99990.47
2023-05-20T15:16:19.569Z,99987.09
2023-05-20T15:18:47.238Z,99979.63
2023-05-20T15:21:18.370Z,99974.38
2023-05-20T15:23:46.952Z,99966.41
2023-05-20T15:26:15.440Z,99969.41
2023-05-20T15:28:47.503Z,99967.66
2023-05-20T15:31:15.580Z,99966.22
2023-05-20T15:33:45.562Z,99959.78
2023-05-20T15:36:14.736Z,99964.19
2023-05-20T15:38:48.667Z,99967.41
2023-05-20T15:41:26.481Z,99959.09
2023-05-20T15:44:00.261Z,99966.94
2023-05-20T15:46:32.313Z,99953.06
2023-05-20T15:49:08.306Z,99952.53
2023-05-20T15:51:37.270Z,99947.63
2023-05-20T15:54:13.910Z,99951.56
2023-05-20T15:56:51.327Z,99953.00
2023-05-20T15:59:19.279Z,99950.00
2023-05-20T16:01:50.591Z,99952.22
2023-05-20T16:04:19.641Z,99942.88
2023-05-20T16:06:48.247Z,99953.34
2023-05-20T16:09:16.312Z,99956.66
2023-05-20T16:11:46.328Z,99954.56
2023-05-20T16:14:22.290Z,99953.25
2023-05-20T16:16:54.308Z,99946.00
2023-05-20T16:19:22.087Z,99948.25
2023-05-20T16:21:51.385Z,99941.69
2023-05-20T16:24:22.501Z,99943.09
2023-05-20T16:26:52.300Z,99939.00
2023-05-20T16:29:21.823Z,99945.75
2023-05-20T16:31:50.367Z,99942.16
2023-05-20T16:34:25.462Z,99935.50
2023-05-20T16:36:55.617Z,99942.81
2023-05-20T16:39:27.255Z,99945.75
2023-05-20T16:41:57.481Z,99951.50
2023-05-20T16:44:26.680Z,99946.47
2023-05-20T16:46:59.454Z,99956.44
2023-05-20T16:49:30.663Z,99953.44
2023-05-20T16:51:58.901Z,99948.66
2023-05-20T16:54:28.353Z,99952.38
2023-05-20T16:56:56.690Z,99947.47
2023-05-20T16:59:29.023Z,99948.00
2023-05-20T17:01:57.987Z,99948.13
2023-05-20T17:04:27.479Z,99953.59
2023-05-20T17:07:07.617Z,99953.59
2023-05-20T17:09:39.935Z,99953.91
2023-05-20T17:12:07.907Z,99955.06
2023-05-20T17:14:37.100Z,99963.06
2023-05-20T17:17:15.419Z,99960.00
2023-05-20T17:19:47.689Z,99964.72
2023-05-20T17:22:19.780Z,99963.72
2023-05-20T17:24:49.526Z,99966.78
2023-05-20T17:27:20.302Z,99972.06
2023-05-20T17:29:49.350Z,99967.09
2023-05-20T17:32:21.741Z,99972.88
2023-05-20T17:34:50.011Z,99969.00
2023-05-20T17:37:20.301Z,99965.59
2023-05-20T17:39:51.650Z,99973.22
2023-05-20T17:42:27.561Z,99967.09
2023-05-20T17:44:58.240Z,99968.81
2023-05-20T17:47:26.165Z,99970.19
2023-05-20T17:49:56.375Z,99971.37
2023-05-20T17:52:30.541Z,99976.56
2023-05-20T17:55:01.247Z,99967.78
2023-05-20T17:57:38.574Z,99975.75
2023-05-20T18:00:10.222Z,99972.88
2023-05-20T18:02:48.424Z,99969.47
2023-05-20T18:05:19.554Z,99971.84
2023-05-20T18:07:50.278Z,99966.25
2023-05-20T18:12:58.216Z,99974.69
2023-05-20T18:15:25.848Z,99976.88
2023-05-20T18:17:54.440Z,99979.91
2023-05-20T18:20:22.751Z,99973.66
2023-05-20T18:22:58.512Z,99978.16
2023-05-20T18:25:34.424Z,99981.50
2023-05-20T18:30:39.339Z,99982.19
2023-05-20T18:33:15.852Z,99980.41
2023-05-20T18:35:44.639Z,99983.84
2023-05-20T18:38:12.483Z,99992.13
2023-05-20T18:40:41.321Z,99986.37
2023-05-20T18:43:09.350Z,99995.81
2023-05-20T18:45:41.777Z,99988.47
2023-05-20T18:48:26.053Z,99992.81
2023-05-20T18:51:13.177Z,99994.03
2023-05-20T18:53:47.506Z,99990.94
2023-05-20T18:56:20.399Z,99997.66
2023-05-20T18:58:48.793Z,99994.25
2023-05-20T19:01:26.395Z,99999.44
2023-05-20T19:04:08.580Z,100001.31
2023-05-20T19:06:37.697Z,100006.78
2023-05-20T19:09:09.804Z,100001.03
2023-05-20T19:11:47.312Z,100008.78
2023-05-20T19:14:21.417Z,100012.97
2023-05-20T19:16:56.503Z,100015.19
2023-05-20T19:19:28.096Z,100021.44
2023-05-20T19:22:11.312Z,100019.72
2023-05-20T19:27:37.251Z,100018.34
2023-05-20T19:30:12.701Z,100023.59
2023-05-20T19:32:43.376Z,100027.03
2023-05-20T19:35:27.340Z,100019.53
2023-05-20T19:38:00.366Z,100017.53
2023-05-20T19:40:33.486Z,100017.69
2023-05-20T19:43:07.987Z,100014.41
2023-05-20T19:45:43.496Z,100018.94
2023-05-20T19:48:12.374Z,100025.41
2023-05-20T19:50:42.240Z,100023.72
2023-05-20T19:53:12.288Z,100024.69
2023-05-20T19:55:44.830Z,100019.56
2023-05-20T19:58:33.202Z,100022.91
2023-05-20T20:01:02.323Z,100019.66
2023-05-20T20:03:34.325Z,100013.66
2023-05-20T20:06:05.812Z,100015.34
2023-05-20T20:08:40.408Z,100026.41
2023-05-20T20:11:13.569Z,100021.50
2023-05-20T20:13:44.318Z,100024.19
2023-05-20T20:18:51.513Z,100023.66
2023-05-20T20:21:25.873Z,100016.28
2023-05-20T20:23:58.009Z,100024.69
2023-05-20T20:26:32.382Z,100022.28
2023-05-20T20:29:03.670Z,100025.34
2023-05-20T20:31:39.893Z,100022.63
2023-05-20T20:34:15.525Z,100018.56
2023-05-20T20:36:47.402Z,100011.69
2023-05-20T20:39:19.634Z,100021.84
2023-05-20T20:41:50.403Z,100015.59
2023-05-20T20:44:23.498Z,100020.88
2023-05-20T20:46:53.418Z,100014.94
2023-05-20T20:49:24.772Z,100014.34
2023-05-20T20:51:58.349Z,100011.66
2023-05-20T20:54:33.339Z,100015.19
2023-05-20T20:57:02.891Z,100009.50
2023-05-20T20:59:31.882Z,100006.16
2023-05-20T21:02:00.580Z,100004.38
2023-05-20T21:04:39.772Z,100000.34
2023-05-20T21:07:07.731Z,99996.41
2023-05-20T21:09:35.934Z,100004.25
2023-05-20T21:12:07.305Z,99998.63
2023-05-20T21:14:36.637Z,100004.41
2023-05-20T21:17:09.369Z,100008.41
2023-05-20T21:19:39.704Z,100004.25
2023-05-20T21:22:08.575Z,99999.91
2023-05-20T21:24:37.001Z,100006.16
2023-05-20T21:27:07.382Z,100004.50
2023-05-20T21:29:35.533Z,100013.16
2023-05-20T21:32:07.325Z,100000.13
2023-05-20T21:34:36.429Z,100008.97
2023-05-20T21:37:04.968Z,100006.34
2023-05-20T21:39:34.759Z,100008.19
2023-05-20T21:42:02.394Z,100001.94
2023-05-20T21:44:30.478Z,100006.91
2023-05-20T21:46:58.356Z,100002.56
2023-05-20T21:49:27.218Z,99999.47
2023-05-20T21:51:55.072Z,99991.56
2023-05-20T21:54:25.268Z,99993.37
2023-05-20T21:56:53.364Z,99991.56
2023-05-20T21:59:21.285Z,99982.22
2023-05-20T22:01:50.922Z,99982.38
2023-05-20T22:04:19.177Z,99987.72
2023-05-20T22:06:47.115Z,99993.94
2023-05-20T22:09:17.020Z,99982.91
2023-05-20T22:11:45.551Z,99985.72
2023-05-20T22:14:16.348Z,99987.13
2023-05-20T22:16:48.602Z,99992.38
2023-05-20T22:19:17.368Z,99988.25
2023-05-20T22:21:50.583Z,99988.13
2023-05-20T22:24:18.995Z,99998.75
2023-05-20T22:26:46.469Z,99994.16
2023-05-20T22:29:14.320Z,99997.44
2023-05-20T22:31:42.466Z,99993.56
2023-05-20T22:34:10.763Z,99988.56
2023-05-20T22:36:40.395Z,99987.44
2023-05-20T22:39:12.753Z,99987.13
2023-05-20T22:41:40.130Z,99987.38
2023-05-20T22:44:07.834Z,99997.56
2023-05-20T22:46:35.832Z,99995.47
2023-05-20T22:49:05.798Z,99993.22
2023-05-20T22:51:35.412Z,100003.06
2023-05-20T22:54:04.147Z,99994.44
2023-05-20T22:56:32.770Z,99995.03
2023-05-20T22:59:00.515Z,100005.25
2023-05-20T23:01:28.525Z,100003.97
2023-05-20T23:03:56.048Z,99996.22
2023-05-20T23:06:26.464Z,99999.75
2023-05-20T23:08:54.262Z,100004.03
2023-05-20T23:11:25.635Z,100009.50
2023-05-20T23:13:53.481Z,100002.47
2023-05-20T23:16:21.888Z,99992.63
2023-05-20T23:18:49.515Z,99998.78
2023-05-20T23:21:17.597Z,99999.09
2023-05-20T23:23:46.160Z,100000.66
2023-05-20T23:26:13.977Z,100007.72
2023-05-20T23:28:41.929Z,100002.00
2023-05-20T23:31:10.846Z,99985.97
2023-05-20T23:33:38.687Z,99990.62
2023-05-20T23:36:09.821Z,99993.56
2023-05-20T23:38:38.019Z,100005.72
2023-05-20T23:41:05.327Z,100001.41
2023-05-20T23:43:33.246Z,99998.38
2023-05-20T23:46:01.144Z,99998.66
2023-05-20T23:48:31.159Z,99989.94
2023-05-20T23:51:00.758Z,99984.69
2023-05-20T23:53:29.309Z,99990.44
2023-05-20T23:55:57.379Z,99987.34
2023-05-20T23:58:24.722Z,99986.44
